Maria — SV7156 — position and weather

sailwx.info

Track history (hours):
 
Tides and Currents Weather Stations Pressure Air Temp Water Temp Dewpoint Dewpoint Depression Visibility Wind Speed Wind Dir Waves Ship Positions

Maria

Last reported at 2017-Feb-21 16:33 UTC. Time now 2017-Feb-21 19:05 UTC.
Position N 37°56' E 023°35'.

Length 74 m; draft 4.5 m.

Type: Ship. MMSI: 237493000.

Date/timePositionNaut miles runAvg speedWind from/ knotsBaromVisibWave heightAir tempDewpointWater temp
2017-Feb-21 16:33N 37°56' E 023°35'2 2.4
2017-Feb-21 15:33N 37°54' E 023°33'0 0.0
2017-Feb-21 14:33N 37°54' E 023°33'0 0.0
2017-Feb-21 13:33N 37°54' E 023°33'1 1.2
2017-Feb-21 12:33N 37°55' E 023°33'5 5.1
2017-Feb-21 11:33N 38°00' E 023°34'2 2.0
2017-Feb-21 10:33N 38°02' E 023°36'0 0.0
2017-Feb-21 09:33N 38°02' E 023°36'1 0.6
2017-Feb-21 08:33N 38°02' E 023°35'0 0.0
2017-Feb-21 07:33N 38°02' E 023°35'1 1.5
2017-Feb-21 06:33N 38°01' E 023°34'3 3.0
2017-Feb-21 05:33N 37°58' E 023°35'  
2017-Feb-18 06:20N 37°58' E 023°35'3 4.1
2017-Feb-18 05:33N 38°01' E 023°34'1 1.1
2017-Feb-18 04:33N 38°02' E 023°35'0 0.0
2017-Feb-18 03:33N 38°02' E 023°35'0 0.0
2017-Feb-18 02:33N 38°02' E 023°35'0 0.0
2017-Feb-18 01:33N 38°02' E 023°35'0 0.0
2017-Feb-18 00:33N 38°02' E 023°35'1 0.8
2017-Feb-17 23:34N 38°02' E 023°36'0 0.1
2017-Feb-17 22:33N 38°02' E 023°36'0 0.0
2017-Feb-17 21:33N 38°02' E 023°36'0 0.0
2017-Feb-17 20:33N 38°02' E 023°36'0 0.2
2017-Feb-17 19:33N 38°02' E 023°36'4 3.5
2017-Feb-17 18:33N 38°02' E 023°31'0 0.0
2017-Feb-17 17:33N 38°02' E 023°31'0 0.0
2017-Feb-17 16:34N 38°02' E 023°31'0 0.1
2017-Feb-17 15:33N 38°02' E 023°31'3 2.5
2017-Feb-17 14:33N 38°02' E 023°34'0 0.0
2017-Feb-17 13:33N 38°02' E 023°34'0 0.0
2017-Feb-17 12:33N 38°02' E 023°34'4 4.2
2017-Feb-17 11:33N 37°58' E 023°33'1 1.3
2017-Feb-17 10:33N 37°58' E 023°35'1 0.0
2017-Feb-16 15:33N 37°57' E 023°35'4 4.2
2017-Feb-16 14:33N 37°53' E 023°33'0 0.0
2017-Feb-16 13:33N 37°53' E 023°33'0 0.0
2017-Feb-16 12:33N 37°53' E 023°33'0 0.0
2017-Feb-16 11:34N 37°53' E 023°33'0 0.0
2017-Feb-16 10:33N 37°53' E 023°33'2 2.1
2017-Feb-16 09:33N 37°55' E 023°34'3 0.2
2017-Feb-15 20:13N 37°58' E 023°35'2 3.8
2017-Feb-15 19:33N 37°60' E 023°33'3 2.9
2017-Feb-15 18:33N 38°02' E 023°36'0 0.0
2017-Feb-15 17:33N 38°02' E 023°36'0 0.2
2017-Feb-15 16:33N 38°02' E 023°35'0 0.3
2017-Feb-15 15:34N 38°02' E 023°35'0 0.0
2017-Feb-15 14:33N 38°02' E 023°35'0 0.0
2017-Feb-15 13:33N 38°02' E 023°35'0 0.0
2017-Feb-15 12:33N 38°02' E 023°35'0 0.0
2017-Feb-15 11:33N 38°02' E 023°35'0 0.0
2017-Feb-15 10:33N 38°02' E 023°35'0 0.0
2017-Feb-15 09:33N 38°02' E 023°35'0 0.1
2017-Feb-15 08:33N 38°02' E 023°35'1 1.4
2017-Feb-15 07:34N 38°01' E 023°34'3 3.1
2017-Feb-15 06:33N 37°58' E 023°35'0 0.0
2017-Feb-15 05:33N 37°58' E 023°35'0 0.0
2017-Feb-14 13:31N 37°57' E 023°35'1 1.0
2017-Feb-14 12:33N 37°57' E 023°36'0 0.0
2017-Feb-14 11:33N 37°57' E 023°36'0 0.0
2017-Feb-14 10:33N 37°57' E 023°36'0 0.0
2017-Feb-14 09:33N 37°57' E 023°36'0 0.0
2017-Feb-14 08:33N 37°57' E 023°36'0 0.0
2017-Feb-14 07:33N 37°57' E 023°36'1 1.1
2017-Feb-14 06:33N 37°58' E 023°35'0 0.0
2017-Feb-12 08:17N 37°58' E 023°35'4 5.1
2017-Feb-12 07:34N 37°54' E 023°32'7 6.6
2017-Feb-12 06:33N 37°52' E 023°25'7 7.0
2017-Feb-12 05:33N 37°53' E 023°16'7 6.9
2017-Feb-12 04:33N 37°55' E 023°07'2 1.5
2017-Feb-12 03:33N 37°55' E 023°05'0 0.0
2017-Feb-12 02:33N 37°55' E 023°05'0 0.0
2017-Feb-12 01:33N 37°55' E 023°05'0 0.0
2017-Feb-12 00:33N 37°55' E 023°05'0 0.0
2017-Feb-11 23:33N 37°55' E 023°05'0 0.0
2017-Feb-11 22:33N 37°55' E 023°05'0 0.0
2017-Feb-11 21:32N 37°55' E 023°05'0 0.5
2017-Feb-11 20:33N 37°55' E 023°06'7 7.0
2017-Feb-11 19:33N 37°53' E 023°14'7 7.2
2017-Feb-11 18:33N 37°52' E 023°23'7 7.3
2017-Feb-11 17:33N 37°54' E 023°32'  
Track history (hours):
 
Tides and Currents Weather Stations Pressure Air Temp Water Temp Dewpoint Dewpoint Depression Visibility Wind Speed Wind Dir Waves Ship Positions

Maria

Last reported at 2017-Feb-21 16:33 UTC. Time now 2017-Feb-21 19:05 UTC.
Position N 37°56' E 023°35'.

Length 74 m; draft 4.5 m.

Type: Ship. MMSI: 237493000.

Date/timePositionNaut miles runAvg speedWind from/ knotsBaromVisibWave heightAir tempDewpointWater temp
2017-Feb-21 16:33N 37°56' E 023°35'2 2.4
2017-Feb-21 15:33N 37°54' E 023°33'0 0.0
2017-Feb-21 14:33N 37°54' E 023°33'0 0.0
2017-Feb-21 13:33N 37°54' E 023°33'1 1.2
2017-Feb-21 12:33N 37°55' E 023°33'5 5.1
2017-Feb-21 11:33N 38°00' E 023°34'2 2.0
2017-Feb-21 10:33N 38°02' E 023°36'0 0.0
2017-Feb-21 09:33N 38°02' E 023°36'1 0.6
2017-Feb-21 08:33N 38°02' E 023°35'0 0.0
2017-Feb-21 07:33N 38°02' E 023°35'1 1.5
2017-Feb-21 06:33N 38°01' E 023°34'3 3.0
2017-Feb-21 05:33N 37°58' E 023°35'  
2017-Feb-18 06:20N 37°58' E 023°35'3 4.1
2017-Feb-18 05:33N 38°01' E 023°34'1 1.1
2017-Feb-18 04:33N 38°02' E 023°35'0 0.0
2017-Feb-18 03:33N 38°02' E 023°35'0 0.0
2017-Feb-18 02:33N 38°02' E 023°35'0 0.0
2017-Feb-18 01:33N 38°02' E 023°35'0 0.0
2017-Feb-18 00:33N 38°02' E 023°35'1 0.8
2017-Feb-17 23:34N 38°02' E 023°36'0 0.1
2017-Feb-17 22:33N 38°02' E 023°36'0 0.0
2017-Feb-17 21:33N 38°02' E 023°36'0 0.0
2017-Feb-17 20:33N 38°02' E 023°36'0 0.2
2017-Feb-17 19:33N 38°02' E 023°36'4 3.5
2017-Feb-17 18:33N 38°02' E 023°31'0 0.0
2017-Feb-17 17:33N 38°02' E 023°31'0 0.0
2017-Feb-17 16:34N 38°02' E 023°31'0 0.1
2017-Feb-17 15:33N 38°02' E 023°31'3 2.5
2017-Feb-17 14:33N 38°02' E 023°34'0 0.0
2017-Feb-17 13:33N 38°02' E 023°34'0 0.0
2017-Feb-17 12:33N 38°02' E 023°34'4 4.2
2017-Feb-17 11:33N 37°58' E 023°33'1 1.3
2017-Feb-17 10:33N 37°58' E 023°35'1 0.0
2017-Feb-16 15:33N 37°57' E 023°35'4 4.2
2017-Feb-16 14:33N 37°53' E 023°33'0 0.0
2017-Feb-16 13:33N 37°53' E 023°33'0 0.0
2017-Feb-16 12:33N 37°53' E 023°33'0 0.0
2017-Feb-16 11:34N 37°53' E 023°33'0 0.0
2017-Feb-16 10:33N 37°53' E 023°33'2 2.1
2017-Feb-16 09:33N 37°55' E 023°34'3 0.2
2017-Feb-15 20:13N 37°58' E 023°35'2 3.8
2017-Feb-15 19:33N 37°60' E 023°33'3 2.9
2017-Feb-15 18:33N 38°02' E 023°36'0 0.0
2017-Feb-15 17:33N 38°02' E 023°36'0 0.2
2017-Feb-15 16:33N 38°02' E 023°35'0 0.3
2017-Feb-15 15:34N 38°02' E 023°35'0 0.0
2017-Feb-15 14:33N 38°02' E 023°35'0 0.0
2017-Feb-15 13:33N 38°02' E 023°35'0 0.0
2017-Feb-15 12:33N 38°02' E 023°35'0 0.0
2017-Feb-15 11:33N 38°02' E 023°35'0 0.0
2017-Feb-15 10:33N 38°02' E 023°35'0 0.0
2017-Feb-15 09:33N 38°02' E 023°35'0 0.1
2017-Feb-15 08:33N 38°02' E 023°35'1 1.4
2017-Feb-15 07:34N 38°01' E 023°34'3 3.1
2017-Feb-15 06:33N 37°58' E 023°35'0 0.0
2017-Feb-15 05:33N 37°58' E 023°35'0 0.0
2017-Feb-14 13:31N 37°57' E 023°35'1 1.0
2017-Feb-14 12:33N 37°57' E 023°36'0 0.0
2017-Feb-14 11:33N 37°57' E 023°36'0 0.0
2017-Feb-14 10:33N 37°57' E 023°36'0 0.0
2017-Feb-14 09:33N 37°57' E 023°36'0 0.0
2017-Feb-14 08:33N 37°57' E 023°36'0 0.0
2017-Feb-14 07:33N 37°57' E 023°36'1 1.1
2017-Feb-14 06:33N 37°58' E 023°35'0 0.0
2017-Feb-12 08:17N 37°58' E 023°35'4 5.1
2017-Feb-12 07:34N 37°54' E 023°32'7 6.6
2017-Feb-12 06:33N 37°52' E 023°25'7 7.0
2017-Feb-12 05:33N 37°53' E 023°16'7 6.9
2017-Feb-12 04:33N 37°55' E 023°07'2 1.5
2017-Feb-12 03:33N 37°55' E 023°05'0 0.0
2017-Feb-12 02:33N 37°55' E 023°05'0 0.0
2017-Feb-12 01:33N 37°55' E 023°05'0 0.0
2017-Feb-12 00:33N 37°55' E 023°05'0 0.0
2017-Feb-11 23:33N 37°55' E 023°05'0 0.0
2017-Feb-11 22:33N 37°55' E 023°05'0 0.0
2017-Feb-11 21:32N 37°55' E 023°05'0 0.5
2017-Feb-11 20:33N 37°55' E 023°06'7 7.0
2017-Feb-11 19:33N 37°53' E 023°14'7 7.2
2017-Feb-11 18:33N 37°52' E 023°23'7 7.3
2017-Feb-11 17:33N 37°54' E 023°32'  

Dump ship's entire track history